This is the latest recevied weather packets stored in our database for station/object AD4WX-13. If no packets are shown the sender has not sent any weather packets the latest 10 day(s).
| Time | Temp. | Humidity | Pressure | Rain* | Wind** | Luminosity | Snow |
|---|---|---|---|---|---|---|---|
| 1777668103 | 18.33° C | 45% | 1013.2 hPa | 0 mm | - | 401 W/m² | - |
| 1777664543 | 19.44° C | 48% | 1014 hPa | 0 mm | - | 587 W/m² | - |
| 1777662637 | 20° C | 45% | 1014.5 hPa | 0 mm | - | 573 W/m² | - |
| 1777658200 | 18.89° C | 49% | 1014.4 hPa | 0 mm | - | 752 W/m² | - |
| 1777656421 | 18.33° C | 58% | 1014.7 hPa | 0 mm | - | 768 W/m² | - |
| 1777655204 | 18.33° C | 53% | 1014.8 hPa | 0 mm | - | 575 W/m² | - |
| 1777653986 | 18.89° C | 57% | 1014.9 hPa | 0 mm | - | 587 W/m² | - |
| 1777648326 | 18.33° C | 60% | 1015.2 hPa | 0 mm | - | 729 W/m² | - |
| 1777641478 | 13.89° C | 89% | 1014.7 hPa | 0 mm | - | 401 W/m² | - |
| 1777640867 | 12.22° C | 91% | 1014.6 hPa | 0 mm | - | 362 W/m² | - |
| 1777639684 | 11.11° C | 91% | 1014.7 hPa | 0 mm | - | 167 W/m² | - |
| 1777636546 | 7.78° C | 91% | 1014.6 hPa | 0 mm | - | 69 W/m² | - |
| 1777633570 | 6.67° C | 92% | 1013.7 hPa | 0 mm | - | 11 W/m² | - |
| 1777632963 | 6.67° C | 92% | 1013.7 hPa | 0 mm | - | 0 W/m² | - |
| 1777632360 | 6.67° C | 92% | 1013.6 hPa | 0 mm | - | 0 W/m² | - |
| 1777621569 | 10° C | 91% | 1013 hPa | 0 mm | - | 0 W/m² | - |
| 1777617185 | 10° C | 91% | 1013.5 hPa | 0 mm | - | 0 W/m² | - |
| 1777612803 | 10° C | 91% | 1013.9 hPa | 0 mm | - | 0 W/m² | - |
| 1777610974 | 10° C | 90% | 1014.2 hPa | 0 mm | - | 0 W/m² | - |
| 1777610398 | 10° C | 90% | 1014 hPa | 0 mm | - | 0 W/m² | - |
| 1777606086 | 10° C | 89% | 1014.4 hPa | 0 mm | - | 0 W/m² | - |
| 1777601228 | 11.11° C | 85% | 1014.2 hPa | 0 mm | - | 0 W/m² | - |
| 1777597452 | 12.78° C | 77% | 1013 hPa | 0 mm | - | 0 W/m² | - |
| 1777596230 | 13.89° C | 73% | 1012.7 hPa | 0 mm | - | 0 W/m² | - |
| 1777595627 | 14.44° C | 72% | 1012.5 hPa | 0 mm | - | 0 W/m² | - |
* Rain latest hour (hover to see other rain measurements)
** Current wind speed in m/s (hover to see current wind gust speed)